sensor_id;sensor_type;location;lat;lon;timestamp;pressure;altitude;pressure_sealevel;temperature;humidity
64453;BME280;50813;52.654;6.766;2023-04-04T00:01:31;103077.0;;;2.38;88.68
64453;BME280;50813;52.654;6.766;2023-04-04T00:03:07;103073.0;;;2.36;88.86
64453;BME280;50813;52.654;6.766;2023-04-04T00:06:20;103075.0;;;2.31;88.67
64453;BME280;50813;52.654;6.766;2023-04-04T00:07:56;103077.0;;;2.21;89.67
64453;BME280;50813;52.654;6.766;2023-04-04T00:09:32;103083.0;;;2.38;89.42
64453;BME280;50813;52.654;6.766;2023-04-04T00:12:44;103077.0;;;2.36;89.57
64453;BME280;50813;52.654;6.766;2023-04-04T00:14:21;103070.0;;;2.29;90.48
64453;BME280;50813;52.654;6.766;2023-04-04T00:15:57;103071.0;;;2.27;90.5
64453;BME280;50813;52.654;6.766;2023-04-04T00:19:09;103070.0;;;2.34;90.5
64453;BME280;50813;52.654;6.766;2023-04-04T00:20:45;103068.0;;;2.36;90.45
64453;BME280;50813;52.654;6.766;2023-04-04T00:22:21;103071.0;;;2.21;91.09
64453;BME280;50813;52.654;6.766;2023-04-04T00:23:57;103071.0;;;2.25;91.66
64453;BME280;50813;52.654;6.766;2023-04-04T00:27:10;103065.00000000001;;;2.34;90.98
64453;BME280;50813;52.654;6.766;2023-04-04T00:28:46;103052.0;;;2.33;90.72
64453;BME280;50813;52.654;6.766;2023-04-04T00:30:22;103057.0;;;2.06;92.09
64453;BME280;50813;52.654;6.766;2023-04-04T00:33:34;103058.99999999999;;;2.13;91.13
64453;BME280;50813;52.654;6.766;2023-04-04T00:35:11;103061.99999999999;;;2.08;90.68
64453;BME280;50813;52.654;6.766;2023-04-04T00:36:47;103056.0;;;2.23;91.22
64453;BME280;50813;52.654;6.766;2023-04-04T00:39:59;103053.0;;;2.19;90.61
64453;BME280;50813;52.654;6.766;2023-04-04T00:41:35;103057.0;;;1.99;90.9
64453;BME280;50813;52.654;6.766;2023-04-04T00:43:12;103059.99999999999;;;2.27;90.9
64453;BME280;50813;52.654;6.766;2023-04-04T00:46:27;103059.99999999999;;;2.34;90.05
64453;BME280;50813;52.654;6.766;2023-04-04T00:48:03;103059.99999999999;;;2.32;89.86
64453;BME280;50813;52.654;6.766;2023-04-04T00:49:39;103058.0;;;2.19;89.58
64453;BME280;50813;52.654;6.766;2023-04-04T00:51:15;103057.0;;;2.19;89.47
64453;BME280;50813;52.654;6.766;2023-04-04T00:54:28;103053.0;;;2.34;89.4
64453;BME280;50813;52.654;6.766;2023-04-04T00:56:07;103054.0;;;2.33;89.04
64453;BME280;50813;52.654;6.766;2023-04-04T00:57:44;103054.0;;;2.27;88.99
64453;BME280;50813;52.654;6.766;2023-04-04T01:00:58;103056.0;;;2.27;88.81
64453;BME280;50813;52.654;6.766;2023-04-04T01:02:35;103063.00000000001;;;2.23;88.72
64453;BME280;50813;52.654;6.766;2023-04-04T01:04:11;103061.99999999999;;;2.06;89.55
64453;BME280;50813;52.654;6.766;2023-04-04T01:07:24;103065.00000000001;;;2.0;90.11
64453;BME280;50813;52.654;6.766;2023-04-04T01:09:01;103061.99999999999;;;1.89;90.57
64453;BME280;50813;52.654;6.766;2023-04-04T01:10:38;103054.0;;;1.98;90.54
64453;BME280;50813;52.654;6.766;2023-04-04T01:12:15;103058.99999999999;;;1.95;90.95
64453;BME280;50813;52.654;6.766;2023-04-04T01:15:28;103054.0;;;1.98;90.17
64453;BME280;50813;52.654;6.766;2023-04-04T01:17:04;103057.0;;;1.91;90.37
64453;BME280;50813;52.654;6.766;2023-04-04T01:18:41;103057.0;;;1.9;90.55
64453;BME280;50813;52.654;6.766;2023-04-04T01:22:01;103063.00000000001;;;1.89;90.99
64453;BME280;50813;52.654;6.766;2023-04-04T01:23:46;103055.0;;;1.76;91.67
64453;BME280;50813;52.654;6.766;2023-04-04T01:25:34;103056.0;;;1.79;91.61
64453;BME280;50813;52.654;6.766;2023-04-04T01:27:10;103052.0;;;1.83;91.15
64453;BME280;50813;52.654;6.766;2023-04-04T01:30:24;103054.0;;;1.69;90.94
64453;BME280;50813;52.654;6.766;2023-04-04T01:32:07;103057.0;;;1.63;91.07
64453;BME280;50813;52.654;6.766;2023-04-04T01:33:53;103063.00000000001;;;1.67;90.21
64453;BME280;50813;52.654;6.766;2023-04-04T01:35:41;103055.0;;;1.78;90.38
64453;BME280;50813;52.654;6.766;2023-04-04T01:37:26;103045.0;;;1.9;89.24
64453;BME280;50813;52.654;6.766;2023-04-04T01:40:55;103046.0;;;1.94;88.8
64453;BME280;50813;52.654;6.766;2023-04-04T01:42:36;103046.0;;;1.88;88.61
64453;BME280;50813;52.654;6.766;2023-04-04T01:44:15;103043.0;;;1.82;88.42
64453;BME280;50813;52.654;6.766;2023-04-04T01:45:52;103045.0;;;1.82;88.04
64453;BME280;50813;52.654;6.766;2023-04-04T01:49:03;103048.0;;;1.76;88.32
64453;BME280;50813;52.654;6.766;2023-04-04T01:50:39;103043.0;;;1.74;88.61
64453;BME280;50813;52.654;6.766;2023-04-04T01:52:15;103039.00000000001;;;1.8;88.18
64453;BME280;50813;52.654;6.766;2023-04-04T01:55:28;103038.00000000001;;;1.74;88.32
64453;BME280;50813;52.654;6.766;2023-04-04T01:57:04;103044.0;;;1.73;88.64
64453;BME280;50813;52.654;6.766;2023-04-04T01:58:40;103039.00000000001;;;1.56;88.99
64453;BME280;50813;52.654;6.766;2023-04-04T02:00:16;103033.99999999999;;;1.8;87.79
64453;BME280;50813;52.654;6.766;2023-04-04T02:03:29;103039.00000000001;;;1.7;88.22
64453;BME280;50813;52.654;6.766;2023-04-04T02:05:05;103039.00000000001;;;1.59;88.45
64453;BME280;50813;52.654;6.766;2023-04-04T02:09:54;103041.00000000001;;;1.42;89.54
64453;BME280;50813;52.654;6.766;2023-04-04T02:11:31;103043.0;;;1.48;89.51
64453;BME280;50813;52.654;6.766;2023-04-04T02:13:06;103045.0;;;1.33;89.94
64453;BME280;50813;52.654;6.766;2023-04-04T02:16:19;103044.0;;;1.42;89.92
64453;BME280;50813;52.654;6.766;2023-04-04T02:17:55;103041.00000000001;;;1.45;89.53
64453;BME280;50813;52.654;6.766;2023-04-04T02:19:31;103042.0;;;1.43;89.51
64453;BME280;50813;52.654;6.766;2023-04-04T02:21:07;103041.00000000001;;;1.43;89.51
64453;BME280;50813;52.654;6.766;2023-04-04T02:24:25;103044.0;;;1.32;89.91
64453;BME280;50813;52.654;6.766;2023-04-04T02:26:01;103045.0;;;1.34;89.85
64453;BME280;50813;52.654;6.766;2023-04-04T02:27:37;103043.0;;;1.38;89.49
64453;BME280;50813;52.654;6.766;2023-04-04T02:30:50;103042.0;;;1.42;89.25
64453;BME280;50813;52.654;6.766;2023-04-04T02:32:26;103039.00000000001;;;1.38;88.89
64453;BME280;50813;52.654;6.766;2023-04-04T02:34:02;103036.99999999999;;;1.34;88.81
64453;BME280;50813;52.654;6.766;2023-04-04T02:37:15;103032.0;;;1.28;88.75
64453;BME280;50813;52.654;6.766;2023-04-04T02:38:51;103033.0;;;1.38;87.91
64453;BME280;50813;52.654;6.766;2023-04-04T02:40:27;103042.0;;;1.29;88.29
64453;BME280;50813;52.654;6.766;2023-04-04T02:42:03;103040.00000000001;;;1.17;88.74
64453;BME280;50813;52.654;6.766;2023-04-04T02:45:16;103036.99999999999;;;1.11;89.13
64453;BME280;50813;52.654;6.766;2023-04-04T02:46:52;103040.00000000001;;;1.04;88.45
64453;BME280;50813;52.654;6.766;2023-04-04T02:48:28;103034.99999999999;;;1.06;88.31
64453;BME280;50813;52.654;6.766;2023-04-04T02:51:41;103030.0;;;1.11;88.11
64453;BME280;50813;52.654;6.766;2023-04-04T02:53:17;103027.0;;;1.08;87.81
64453;BME280;50813;52.654;6.766;2023-04-04T02:54:53;103027.0;;;1.04;87.44
64453;BME280;50813;52.654;6.766;2023-04-04T02:58:05;103024.0;;;0.82;88.42
64453;BME280;50813;52.654;6.766;2023-04-04T02:59:42;103022.0;;;0.75;88.95
64453;BME280;50813;52.654;6.766;2023-04-04T03:01:18;103022.0;;;0.68;88.9
64453;BME280;50813;52.654;6.766;2023-04-04T03:04:31;103017.0;;;0.62;89.92
64453;BME280;50813;52.654;6.766;2023-04-04T03:06:07;103011.99999999999;;;0.8;89.49
64453;BME280;50813;52.654;6.766;2023-04-04T03:07:43;103006.0;;;0.82;88.71
64453;BME280;50813;52.654;6.766;2023-04-04T03:09:20;103005.0;;;0.72;88.97
64453;BME280;50813;52.654;6.766;2023-04-04T03:12:32;103005.0;;;0.7;88.93
64453;BME280;50813;52.654;6.766;2023-04-04T03:14:08;103001.0;;;0.56;89.37
64453;BME280;50813;52.654;6.766;2023-04-04T03:15:44;103001.0;;;0.58;88.84
64453;BME280;50813;52.654;6.766;2023-04-04T03:18:56;102994.0;;;0.57;88.62
64453;BME280;50813;52.654;6.766;2023-04-04T03:20:33;102994.0;;;0.47;88.94
64453;BME280;50813;52.654;6.766;2023-04-04T03:22:09;102999.0;;;0.5;88.84
64453;BME280;50813;52.654;6.766;2023-04-04T03:25:21;102997.0;;;0.54;88.65
64453;BME280;50813;52.654;6.766;2023-04-04T03:26:58;103000.0;;;0.43;89.59
64453;BME280;50813;52.654;6.766;2023-04-04T03:28:34;102997.0;;;0.39;89.7
64453;BME280;50813;52.654;6.766;2023-04-04T03:30:11;102999.0;;;0.31;89.71
64453;BME280;50813;52.654;6.766;2023-04-04T03:33:24;102999.0;;;0.24;90.39
64453;BME280;50813;52.654;6.766;2023-04-04T03:35:00;102995.0;;;0.21;90.1
64453;BME280;50813;52.654;6.766;2023-04-04T03:36:36;102998.0;;;0.37;90.33
64453;BME280;50813;52.654;6.766;2023-04-04T03:39:48;102995.0;;;0.23;90.77
64453;BME280;50813;52.654;6.766;2023-04-04T03:41:25;102995.0;;;0.18;90.53
64453;BME280;50813;52.654;6.766;2023-04-04T03:43:01;103000.0;;;0.26;89.95
64453;BME280;50813;52.654;6.766;2023-04-04T03:46:15;102999.0;;;0.26;89.84
64453;BME280;50813;52.654;6.766;2023-04-04T03:47:51;103000.0;;;0.32;90.22
64453;BME280;50813;52.654;6.766;2023-04-04T03:49:27;102998.0;;;0.23;90.18
64453;BME280;50813;52.654;6.766;2023-04-04T03:52:40;102994.0;;;0.2;90.4
64453;BME280;50813;52.654;6.766;2023-04-04T03:54:16;102995.0;;;0.21;91.21
64453;BME280;50813;52.654;6.766;2023-04-04T03:55:54;102996.0;;;0.12;91.56
64453;BME280;50813;52.654;6.766;2023-04-04T03:57:31;102992.0;;;0.11;91.56
64453;BME280;50813;52.654;6.766;2023-04-04T04:00:43;102997.0;;;0.05;91.75
64453;BME280;50813;52.654;6.766;2023-04-04T04:02:19;102994.0;;;0.0;91.99
64453;BME280;50813;52.654;6.766;2023-04-04T04:03:55;102983.99999999999;;;0.11;90.92
64453;BME280;50813;52.654;6.766;2023-04-04T04:07:07;102988.00000000001;;;0.01;91.29
64453;BME280;50813;52.654;6.766;2023-04-04T04:08:44;102991.00000000001;;;0.0;91.34
64453;BME280;50813;52.654;6.766;2023-04-04T04:10:21;102990.00000000001;;;-0.1;91.74
64453;BME280;50813;52.654;6.766;2023-04-04T04:13:33;102988.00000000001;;;-0.16;92.31
64453;BME280;50813;52.654;6.766;2023-04-04T04:15:10;102979.0;;;-0.2;91.65
64453;BME280;50813;52.654;6.766;2023-04-04T04:16:46;102977.0;;;-0.24;91.97
64453;BME280;50813;52.654;6.766;2023-04-04T04:18:22;102973.0;;;-0.23;91.96
64453;BME280;50813;52.654;6.766;2023-04-04T04:21:35;102973.0;;;-0.31;91.37
64453;BME280;50813;52.654;6.766;2023-04-04T04:23:11;102971.0;;;-0.37;92.06
64453;BME280;50813;52.654;6.766;2023-04-04T04:24:47;102971.0;;;-0.28;91.82
64453;BME280;50813;52.654;6.766;2023-04-04T04:27:59;102970.0;;;-0.4;92.23
64453;BME280;50813;52.654;6.766;2023-04-04T04:29:37;102971.0;;;-0.43;93.62
64453;BME280;50813;52.654;6.766;2023-04-04T04:31:13;102974.0;;;-0.37;93.24
64453;BME280;50813;52.654;6.766;2023-04-04T04:34:25;102979.0;;;-0.39;92.95
64453;BME280;50813;52.654;6.766;2023-04-04T04:36:02;102977.0;;;-0.49;92.83
64453;BME280;50813;52.654;6.766;2023-04-04T04:37:39;102983.0;;;-0.48;92.73
64453;BME280;50813;52.654;6.766;2023-04-04T04:39:15;102982.0;;;-0.35;93.2
64453;BME280;50813;52.654;6.766;2023-04-04T04:42:28;102984.99999999999;;;-0.28;92.84
64453;BME280;50813;52.654;6.766;2023-04-04T04:44:04;102989.00000000001;;;-0.31;93.63
64453;BME280;50813;52.654;6.766;2023-04-04T04:45:40;102983.99999999999;;;-0.34;94.45
64453;BME280;50813;52.654;6.766;2023-04-04T04:48:52;102991.00000000001;;;-0.33;94.66
64453;BME280;50813;52.654;6.766;2023-04-04T04:50:28;102990.00000000001;;;-0.37;95.34
64453;BME280;50813;52.654;6.766;2023-04-04T04:52:04;102998.0;;;-0.38;95.77
64453;BME280;50813;52.654;6.766;2023-04-04T04:55:17;102997.0;;;-0.33;95.88
64453;BME280;50813;52.654;6.766;2023-04-04T04:56:53;102999.0;;;-0.34;95.84
64453;BME280;50813;52.654;6.766;2023-04-04T04:58:29;102997.0;;;-0.38;95.87
64453;BME280;50813;52.654;6.766;2023-04-04T05:01:42;103001.0;;;-0.4;96.36
64453;BME280;50813;52.654;6.766;2023-04-04T05:03:18;103000.0;;;-0.35;96.54
64453;BME280;50813;52.654;6.766;2023-04-04T05:04:55;102997.0;;;-0.35;97.05
64453;BME280;50813;52.654;6.766;2023-04-04T05:06:31;102992.0;;;-0.32;97.41
64453;BME280;50813;52.654;6.766;2023-04-04T05:09:43;102997.0;;;-0.26;97.27
64453;BME280;50813;52.654;6.766;2023-04-04T05:11:19;102997.0;;;-0.18;97.42
64453;BME280;50813;52.654;6.766;2023-04-04T05:12:56;102999.0;;;-0.1;97.05
64453;BME280;50813;52.654;6.766;2023-04-04T05:16:08;103001.0;;;-0.04;96.57
64453;BME280;50813;52.654;6.766;2023-04-04T05:17:45;103003.0;;;0.0;96.2
64453;BME280;50813;52.654;6.766;2023-04-04T05:19:21;103008.99999999999;;;0.01;95.99
64453;BME280;50813;52.654;6.766;2023-04-04T05:22:33;103011.99999999999;;;0.05;95.91
64453;BME280;50813;52.654;6.766;2023-04-04T05:24:09;103006.0;;;0.08;95.57
64453;BME280;50813;52.654;6.766;2023-04-04T05:25:47;103011.99999999999;;;0.04;95.55
64453;BME280;50813;52.654;6.766;2023-04-04T05:27:24;103021.0;;;0.06;95.57
64453;BME280;50813;52.654;6.766;2023-04-04T05:30:36;103017.0;;;0.16;94.78
64453;BME280;50813;52.654;6.766;2023-04-04T05:32:12;103017.0;;;0.13;94.26
64453;BME280;50813;52.654;6.766;2023-04-04T05:33:48;103017.0;;;0.13;94.5
64453;BME280;50813;52.654;6.766;2023-04-04T05:37:00;103008.0;;;0.13;94.3
64453;BME280;50813;52.654;6.766;2023-04-04T05:38:36;103006.0;;;0.15;94.34
64453;BME280;50813;52.654;6.766;2023-04-04T05:40:13;103006.0;;;0.23;94.52
64453;BME280;50813;52.654;6.766;2023-04-04T05:43:25;103005.0;;;0.19;95.0
64453;BME280;50813;52.654;6.766;2023-04-04T05:45:01;103006.0;;;0.3;94.36
64453;BME280;50813;52.654;6.766;2023-04-04T05:46:37;103008.0;;;0.23;94.99
64453;BME280;50813;52.654;6.766;2023-04-04T05:48:13;103009.99999999999;;;0.33;94.74
64453;BME280;50813;52.654;6.766;2023-04-04T05:51:26;103016.00000000001;;;0.4;94.53
64453;BME280;50813;52.654;6.766;2023-04-04T05:53:02;103021.0;;;0.59;93.49
64453;BME280;50813;52.654;6.766;2023-04-04T05:54:38;103025.0;;;0.67;93.04
64453;BME280;50813;52.654;6.766;2023-04-04T05:57:50;103028.0;;;0.71;92.79
64453;BME280;50813;52.654;6.766;2023-04-04T05:59:26;103021.0;;;0.75;92.85
64453;BME280;50813;52.654;6.766;2023-04-04T06:01:05;103019.0;;;0.74;91.79
64453;BME280;50813;52.654;6.766;2023-04-04T06:04:18;103021.0;;;0.85;91.74
64453;BME280;50813;52.654;6.766;2023-04-04T06:05:54;103020.0;;;0.85;90.82
64453;BME280;50813;52.654;6.766;2023-04-04T06:07:30;103020.0;;;0.94;90.91
64453;BME280;50813;52.654;6.766;2023-04-04T06:10:42;103020.0;;;1.03;89.15
64453;BME280;50813;52.654;6.766;2023-04-04T06:12:19;103026.0;;;1.18;88.76
64453;BME280;50813;52.654;6.766;2023-04-04T06:13:55;103030.0;;;1.23;88.31
64453;BME280;50813;52.654;6.766;2023-04-04T06:15:31;103032.0;;;1.33;88.31
64453;BME280;50813;52.654;6.766;2023-04-04T06:18:43;103027.0;;;1.45;87.01
64453;BME280;50813;52.654;6.766;2023-04-04T06:20:20;103027.0;;;1.48;86.12
64453;BME280;50813;52.654;6.766;2023-04-04T06:21:57;103027.0;;;1.62;85.88
64453;BME280;50813;52.654;6.766;2023-04-04T06:25:09;103027.0;;;1.79;85.57
64453;BME280;50813;52.654;6.766;2023-04-04T06:26:45;103031.0;;;1.91;85.0
64453;BME280;50813;52.654;6.766;2023-04-04T06:28:21;103028.0;;;2.07;85.24
64453;BME280;50813;52.654;6.766;2023-04-04T06:31:33;103024.0;;;2.19;83.47
64453;BME280;50813;52.654;6.766;2023-04-04T06:33:10;103023.0;;;2.19;83.5
64453;BME280;50813;52.654;6.766;2023-04-04T06:34:46;103023.0;;;2.19;82.63
64453;BME280;50813;52.654;6.766;2023-04-04T06:36:22;103028.0;;;2.29;82.99
64453;BME280;50813;52.654;6.766;2023-04-04T06:39:34;103033.0;;;2.23;82.5
64453;BME280;50813;52.654;6.766;2023-04-04T06:41:10;103033.99999999999;;;2.37;82.11
64453;BME280;50813;52.654;6.766;2023-04-04T06:42:47;103032.0;;;2.48;81.91
64453;BME280;50813;52.654;6.766;2023-04-04T06:46:00;103033.99999999999;;;2.65;81.86
64453;BME280;50813;52.654;6.766;2023-04-04T06:47:36;103036.99999999999;;;2.9;81.95
64453;BME280;50813;52.654;6.766;2023-04-04T06:49:12;103034.99999999999;;;3.11;81.47
64453;BME280;50813;52.654;6.766;2023-04-04T06:52:24;103042.0;;;2.93;79.55
64453;BME280;50813;52.654;6.766;2023-04-04T06:54:01;103039.00000000001;;;3.06;78.74
64453;BME280;50813;52.654;6.766;2023-04-04T06:55:37;103036.99999999999;;;3.35;75.99
64453;BME280;50813;52.654;6.766;2023-04-04T06:58:49;103032.0;;;3.37;75.02
64453;BME280;50813;52.654;6.766;2023-04-04T07:00:25;103041.00000000001;;;3.6;74.66
64453;BME280;50813;52.654;6.766;2023-04-04T07:02:01;103032.0;;;3.51;74.86
64453;BME280;50813;52.654;6.766;2023-04-04T07:03:37;103031.0;;;3.78;75.19
64453;BME280;50813;52.654;6.766;2023-04-04T07:06:50;103020.0;;;4.07;74.25
64453;BME280;50813;52.654;6.766;2023-04-04T07:08:28;103019.0;;;4.17;73.33
64453;BME280;50813;52.654;6.766;2023-04-04T07:10:05;103017.0;;;4.28;70.28
64453;BME280;50813;52.654;6.766;2023-04-04T07:13:17;103019.0;;;4.29;70.95
64453;BME280;50813;52.654;6.766;2023-04-04T07:14:53;103020.0;;;4.0;71.55
64453;BME280;50813;52.654;6.766;2023-04-04T07:16:30;103020.0;;;4.34;70.58
64453;BME280;50813;52.654;6.766;2023-04-04T07:19:42;103022.0;;;4.49;69.94
64453;BME280;50813;52.654;6.766;2023-04-04T07:21:18;103027.0;;;4.64;70.19
64453;BME280;50813;52.654;6.766;2023-04-04T07:22:54;103025.0;;;4.82;69.33
64453;BME280;50813;52.654;6.766;2023-04-04T07:24:30;103026.0;;;4.86;67.89
64453;BME280;50813;52.654;6.766;2023-04-04T07:27:43;103026.0;;;5.03;68.63
64453;BME280;50813;52.654;6.766;2023-04-04T07:29:19;103027.0;;;4.88;68.53
64453;BME280;50813;52.654;6.766;2023-04-04T07:30:58;103021.0;;;5.26;69.33
64453;BME280;50813;52.654;6.766;2023-04-04T07:34:10;103025.0;;;5.27;68.02
64453;BME280;50813;52.654;6.766;2023-04-04T07:35:46;103025.0;;;5.33;65.81
64453;BME280;50813;52.654;6.766;2023-04-04T07:37:22;103027.0;;;5.34;64.6
64453;BME280;50813;52.654;6.766;2023-04-04T07:40:35;103023.0;;;5.63;65.09
64453;BME280;50813;52.654;6.766;2023-04-04T07:42:11;103019.0;;;5.77;65.12
64453;BME280;50813;52.654;6.766;2023-04-04T07:43:47;103022.0;;;5.79;64.48
64453;BME280;50813;52.654;6.766;2023-04-04T07:45:22;103022.0;;;6.02;64.72
64453;BME280;50813;52.654;6.766;2023-04-04T07:48:34;103021.0;;;6.15;64.66
64453;BME280;50813;52.654;6.766;2023-04-04T07:50:10;103018.0;;;6.4;63.84
64453;BME280;50813;52.654;6.766;2023-04-04T07:51:47;103015.00000000001;;;6.34;61.39
64453;BME280;50813;52.654;6.766;2023-04-04T07:54:58;103007.0;;;6.45;61.0
64453;BME280;50813;52.654;6.766;2023-04-04T07:56:35;103016.00000000001;;;6.71;61.78
64453;BME280;50813;52.654;6.766;2023-04-04T07:58:10;103014.00000000001;;;6.62;58.55
64453;BME280;50813;52.654;6.766;2023-04-04T08:01:22;103011.99999999999;;;6.38;54.98
64453;BME280;50813;52.654;6.766;2023-04-04T08:02:58;103016.00000000001;;;6.67;56.22
64453;BME280;50813;52.654;6.766;2023-04-04T08:04:34;103013.00000000001;;;6.69;55.22
64453;BME280;50813;52.654;6.766;2023-04-04T08:07:48;103011.99999999999;;;6.12;55.74
64453;BME280;50813;52.654;6.766;2023-04-04T08:09:24;103011.99999999999;;;5.85;57.69
64453;BME280;50813;52.654;6.766;2023-04-04T08:11:00;103011.99999999999;;;6.36;57.28
64453;BME280;50813;52.654;6.766;2023-04-04T08:12:37;103015.00000000001;;;6.62;58.23
64453;BME280;50813;52.654;6.766;2023-04-04T08:15:50;103018.0;;;6.94;57.71
64453;BME280;50813;52.654;6.766;2023-04-04T08:17:26;103016.00000000001;;;6.89;58.14
64453;BME280;50813;52.654;6.766;2023-04-04T08:19:02;103018.0;;;6.97;57.17
64453;BME280;50813;52.654;6.766;2023-04-04T08:22:14;103017.0;;;6.94;57.19
64453;BME280;50813;52.654;6.766;2023-04-04T08:23:50;103017.0;;;7.18;55.64
64453;BME280;50813;52.654;6.766;2023-04-04T08:25:26;103015.00000000001;;;7.18;55.15
64453;BME280;50813;52.654;6.766;2023-04-04T08:28:37;103006.0;;;7.46;54.73
64453;BME280;50813;52.654;6.766;2023-04-04T08:30:13;103008.0;;;7.57;53.84
64453;BME280;50813;52.654;6.766;2023-04-04T08:31:50;103006.0;;;7.94;54.62
64453;BME280;50813;52.654;6.766;2023-04-04T08:35:02;103005.0;;;7.75;53.67
64453;BME280;50813;52.654;6.766;2023-04-04T08:36:38;103007.0;;;8.05;56.17
64453;BME280;50813;52.654;6.766;2023-04-04T08:38:14;103005.0;;;8.18;55.08
64453;BME280;50813;52.654;6.766;2023-04-04T08:39:50;103003.0;;;7.95;51.79
64453;BME280;50813;52.654;6.766;2023-04-04T08:43:03;102997.0;;;7.84;52.69
64453;BME280;50813;52.654;6.766;2023-04-04T08:44:40;103002.0;;;8.18;50.52
64453;BME280;50813;52.654;6.766;2023-04-04T08:46:20;102999.0;;;7.92;51.83
64453;BME280;50813;52.654;6.766;2023-04-04T08:49:37;103003.0;;;7.4;52.16
64453;BME280;50813;52.654;6.766;2023-04-04T08:51:14;103000.0;;;7.83;52.61
64453;BME280;50813;52.654;6.766;2023-04-04T08:52:52;102998.0;;;8.01;53.36
64453;BME280;50813;52.654;6.766;2023-04-04T08:54:29;102995.0;;;8.32;50.34
64453;BME280;50813;52.654;6.766;2023-04-04T08:57:42;102998.0;;;7.82;50.09
64453;BME280;50813;52.654;6.766;2023-04-04T08:59:19;102997.0;;;8.09;50.66
64453;BME280;50813;52.654;6.766;2023-04-04T09:00:55;102995.0;;;8.1;50.29
64453;BME280;50813;52.654;6.766;2023-04-04T09:04:15;102998.0;;;7.67;51.08
64453;BME280;50813;52.654;6.766;2023-04-04T09:05:52;102995.0;;;7.95;50.73
64453;BME280;50813;52.654;6.766;2023-04-04T09:07:30;102997.0;;;7.34;51.84
64453;BME280;50813;52.654;6.766;2023-04-04T09:09:07;102995.0;;;7.81;51.86
64453;BME280;50813;52.654;6.766;2023-04-04T09:12:21;102993.0;;;7.96;51.27
64453;BME280;50813;52.654;6.766;2023-04-04T09:13:57;103000.0;;;8.16;50.77
64453;BME280;50813;52.654;6.766;2023-04-04T09:15:37;102999.0;;;7.91;51.0
64453;BME280;50813;52.654;6.766;2023-04-04T09:18:49;102994.0;;;7.91;50.38
64453;BME280;50813;52.654;6.766;2023-04-04T09:20:34;102995.0;;;8.15;50.76
64453;BME280;50813;52.654;6.766;2023-04-04T09:22:14;102990.00000000001;;;8.64;51.12
64453;BME280;50813;52.654;6.766;2023-04-04T09:23:57;102993.0;;;8.8;50.82
64453;BME280;50813;52.654;6.766;2023-04-04T09:27:11;102991.00000000001;;;8.67;48.89
64453;BME280;50813;52.654;6.766;2023-04-04T09:28:51;102986.99999999999;;;8.39;49.52
64453;BME280;50813;52.654;6.766;2023-04-04T09:30:28;102988.00000000001;;;8.59;48.66
64453;BME280;50813;52.654;6.766;2023-04-04T09:32:06;102989.00000000001;;;8.47;49.84
64453;BME280;50813;52.654;6.766;2023-04-04T09:36:56;102986.99999999999;;;8.86;49.35
64453;BME280;50813;52.654;6.766;2023-04-04T09:38:35;102983.99999999999;;;8.98;48.77
64453;BME280;50813;52.654;6.766;2023-04-04T09:41:50;102983.0;;;8.64;47.31
64453;BME280;50813;52.654;6.766;2023-04-04T09:43:29;102977.0;;;8.75;48.85
64453;BME280;50813;52.654;6.766;2023-04-04T09:45:05;102975.0;;;9.0;48.75
64453;BME280;50813;52.654;6.766;2023-04-04T09:46:43;102967.0;;;8.76;47.05
64453;BME280;50813;52.654;6.766;2023-04-04T09:50:06;102970.0;;;9.26;48.12
64453;BME280;50813;52.654;6.766;2023-04-04T09:51:47;102972.0;;;9.43;46.71
64453;BME280;50813;52.654;6.766;2023-04-04T09:53:24;102970.0;;;9.8;45.96
64453;BME280;50813;52.654;6.766;2023-04-04T09:56:39;102972.0;;;9.5;43.76
64453;BME280;50813;52.654;6.766;2023-04-04T09:58:16;102966.00000000001;;;9.48;45.08
64453;BME280;50813;52.654;6.766;2023-04-04T09:59:56;102964.00000000001;;;9.71;44.17
64453;BME280;50813;52.654;6.766;2023-04-04T10:01:33;102967.0;;;9.9;43.99
64453;BME280;50813;52.654;6.766;2023-04-04T10:04:48;102967.0;;;9.91;43.47
64453;BME280;50813;52.654;6.766;2023-04-04T10:06:25;102969.0;;;9.71;41.83
64453;BME280;50813;52.654;6.766;2023-04-04T10:08:13;102967.0;;;9.99;42.3
64453;BME280;50813;52.654;6.766;2023-04-04T10:09:50;102967.0;;;9.83;42.66
64453;BME280;50813;52.654;6.766;2023-04-04T10:13:05;102969.0;;;10.13;44.14
64453;BME280;50813;52.654;6.766;2023-04-04T10:14:41;102967.0;;;9.9;42.35
64453;BME280;50813;52.654;6.766;2023-04-04T10:16:17;102959.99999999999;;;9.89;42.14
64453;BME280;50813;52.654;6.766;2023-04-04T10:19:32;102959.99999999999;;;9.94;42.98
64453;BME280;50813;52.654;6.766;2023-04-04T10:21:09;102951.0;;;9.66;41.23
64453;BME280;50813;52.654;6.766;2023-04-04T10:22:45;102958.0;;;9.64;42.05
64453;BME280;50813;52.654;6.766;2023-04-04T10:24:21;102958.0;;;9.8;43.75
64453;BME280;50813;52.654;6.766;2023-04-04T10:27:34;102965.00000000001;;;10.1;43.8
64453;BME280;50813;52.654;6.766;2023-04-04T10:29:09;102959.99999999999;;;10.17;41.45
64453;BME280;50813;52.654;6.766;2023-04-04T10:30:48;102957.0;;;10.14;41.8
64453;BME280;50813;52.654;6.766;2023-04-04T10:34:27;102952.0;;;9.81;42.62
64453;BME280;50813;52.654;6.766;2023-04-04T10:36:07;102953.0;;;10.23;42.64
64453;BME280;50813;52.654;6.766;2023-04-04T10:37:51;102954.0;;;10.45;41.06
64453;BME280;50813;52.654;6.766;2023-04-04T10:39:36;102951.0;;;10.28;41.01
64453;BME280;50813;52.654;6.766;2023-04-04T10:41:13;102949.0;;;10.6;41.96
64453;BME280;50813;52.654;6.766;2023-04-04T10:44:28;102952.0;;;10.56;42.21
64453;BME280;50813;52.654;6.766;2023-04-04T10:46:10;102953.0;;;10.86;41.88
64453;BME280;50813;52.654;6.766;2023-04-04T10:47:49;102958.0;;;10.74;42.57
64453;BME280;50813;52.654;6.766;2023-04-04T10:51:03;102951.0;;;10.15;40.99
64453;BME280;50813;52.654;6.766;2023-04-04T10:52:42;102948.0;;;10.67;41.28
64453;BME280;50813;52.654;6.766;2023-04-04T10:54:20;102946.0;;;10.59;40.4
64453;BME280;50813;52.654;6.766;2023-04-04T10:55:55;102938.00000000001;;;10.95;41.93